Time;durP1;ratioP1;P1;durP2;ratioP2;P2;SDS_P1;SDS_P2;PMS_P1;PMS_P2;Temp;Humidity;BMP_temperature;BMP_pressure;BME280_temperature;BME280_humidity;BME280_pressure;Samples;Min_cycle;Max_cycle;Signal;HPM_P1;HPM_P2
2022/01/10 00:01:02;;;;;;;12.85;4.65;;;2.70;99.90;;;;;;5040568;28;20032;-65
2022/01/10 00:03:28;;;;;;;26.08;5.57;;;2.70;99.90;;;;;;5023997;28;20056;-65
2022/01/10 00:05:53;;;;;;;17.20;4.93;;;2.70;99.90;;;;;;5021820;28;20051;-65
2022/01/10 00:08:19;;;;;;;21.95;6.18;;;2.70;99.90;;;;;;5045421;28;20530;-65
2022/01/10 00:10:45;;;;;;;18.73;4.78;;;2.70;99.90;;;;;;5044819;28;20127;-65
2022/01/10 00:13:11;;;;;;;22.25;5.80;;;2.70;99.90;;;;;;5036645;28;20577;-65
2022/01/10 00:15:37;;;;;;;17.80;4.70;;;2.70;99.90;;;;;;5038479;28;20032;-65
2022/01/10 00:18:03;;;;;;;13.00;4.00;;;2.70;99.90;;;;;;5024686;28;20055;-65
2022/01/10 00:20:29;;;;;;;12.93;4.82;;;2.60;99.90;;;;;;5040365;28;20037;-64
2022/01/10 00:22:55;;;;;;;13.93;4.20;;;2.50;99.90;;;;;;5037238;28;20403;-65
2022/01/10 00:25:23;;;;;;;12.13;4.30;;;2.50;99.90;;;;;;5026426;28;20121;-65
2022/01/10 00:27:51;;;;;;;12.70;4.45;;;2.50;99.90;;;;;;5038709;28;21703;-65
2022/01/10 00:30:17;;;;;;;14.50;4.28;;;2.40;99.90;;;;;;5021225;28;20148;-64
2022/01/10 00:32:44;;;;;;;17.42;4.85;;;2.40;99.90;;;;;;5037410;28;20064;-64
2022/01/10 00:35:10;;;;;;;16.08;4.80;;;2.40;99.90;;;;;;5034427;28;20029;-64
2022/01/10 00:37:39;;;;;;;9.13;3.47;;;2.30;99.90;;;;;;5020865;28;20072;-65
2022/01/10 00:40:06;;;;;;;17.15;5.03;;;2.30;99.90;;;;;;5017568;28;20071;-64
2022/01/10 00:42:32;;;;;;;16.88;4.63;;;2.30;99.90;;;;;;5037161;28;20040;-64
2022/01/10 00:45:01;;;;;;;17.23;4.25;;;2.30;99.90;;;;;;5039967;28;20048;-64
2022/01/10 00:47:27;;;;;;;26.25;5.57;;;2.30;99.90;;;;;;5035012;28;20047;-64
2022/01/10 00:49:53;;;;;;;22.27;5.07;;;2.20;99.90;;;;;;5035789;28;20045;-64
2022/01/10 00:52:19;;;;;;;14.23;5.20;;;2.20;99.90;;;;;;5017858;28;20047;-64
2022/01/10 00:54:45;;;;;;;11.75;3.97;;;2.20;99.90;;;;;;5038180;28;20233;-64
2022/01/10 00:57:10;;;;;;;13.02;4.57;;;2.10;99.90;;;;;;5044683;28;20182;-64
2022/01/10 00:59:36;;;;;;;15.65;4.65;;;2.10;99.90;;;;;;5028996;28;20043;-64
2022/01/10 01:02:03;;;;;;;19.10;4.43;;;2.10;99.90;;;;;;5028591;28;20097;-64
2022/01/10 01:04:29;;;;;;;18.50;5.50;;;2.10;99.90;;;;;;5030996;28;20041;-64
2022/01/10 01:06:55;;;;;;;18.25;5.00;;;2.10;99.90;;;;;;5046874;28;20090;-64
2022/01/10 01:09:26;;;;;;;12.85;4.55;;;2.00;99.90;;;;;;5016418;28;20526;-64
2022/01/10 01:14:26;;;;;;;12.50;4.22;;;2.00;99.90;;;;;;5046111;28;20105;-64
2022/01/10 01:17:13;;;;;;;15.50;6.13;;;2.00;99.90;;;;;;5013291;28;20036;-64
2022/01/10 01:25:09;;;;;;;11.40;4.97;;;1.90;99.90;;;;;;5049473;28;19917;-64
2022/01/10 01:27:35;;;;;;;11.25;5.10;;;1.80;99.90;;;;;;5043351;28;20056;-64
2022/01/10 01:30:02;;;;;;;10.10;4.40;;;1.80;99.90;;;;;;5030916;28;20094;-64
2022/01/10 01:32:27;;;;;;;16.83;5.65;;;1.80;99.90;;;;;;5029730;28;20037;-65
2022/01/10 01:34:57;;;;;;;14.88;5.45;;;1.70;99.90;;;;;;5028796;28;20728;-64
2022/01/10 01:37:23;;;;;;;11.18;4.90;;;1.70;99.90;;;;;;5032810;28;20086;-64
2022/01/10 01:39:48;;;;;;;13.80;5.30;;;1.70;99.90;;;;;;5046216;28;20407;-64
2022/01/10 01:42:56;;;;;;;18.70;5.35;;;1.70;99.90;;;;;;5029956;28;20040;-64
2022/01/10 01:45:08;;;;;;;11.75;5.47;;;1.60;99.90;;;;;;5037548;28;20044;-64
2022/01/10 01:47:34;;;;;;;12.73;5.03;;;1.60;99.90;;;;;;5045821;28;20507;-64
2022/01/10 01:50:00;;;;;;;21.42;5.88;;;1.60;99.90;;;;;;5045257;28;20037;-64
2022/01/10 01:52:27;;;;;;;17.25;5.68;;;1.60;99.90;;;;;;5044202;28;20260;-64
2022/01/10 01:54:53;;;;;;;19.45;8.77;;;1.60;99.90;;;;;;5044830;28;20076;-64
2022/01/10 01:57:20;;;;;;;12.48;6.05;;;1.60;99.90;;;;;;5029277;28;20119;-64
2022/01/10 01:59:45;;;;;;;17.92;7.53;;;1.50;99.90;;;;;;5029269;28;20094;-64
2022/01/10 02:02:11;;;;;;;13.52;5.53;;;1.50;99.90;;;;;;5044547;28;20500;-64
2022/01/10 02:04:37;;;;;;;8.50;4.35;;;1.50;99.90;;;;;;5024269;28;20414;-65
2022/01/10 02:07:06;;;;;;;13.57;5.40;;;1.40;99.90;;;;;;5041956;28;20044;-64
2022/01/10 02:09:32;;;;;;;16.58;5.65;;;1.40;99.90;;;;;;5041904;28;20063;-64
2022/01/10 02:11:58;;;;;;;9.35;4.53;;;1.40;99.90;;;;;;5041384;28;20036;-64
2022/01/10 02:14:24;;;;;;;12.93;4.70;;;1.40;99.90;;;;;;5008673;28;20039;-64
2022/01/10 02:16:55;;;;;;;16.67;5.95;;;1.40;99.90;;;;;;5026023;28;20062;-64
2022/01/10 02:19:22;;;;;;;15.80;5.05;;;1.40;99.90;;;;;;5036822;28;20048;-64
2022/01/10 02:21:48;;;;;;;14.05;5.47;;;1.40;99.90;;;;;;5038812;28;20045;-64
2022/01/10 02:24:14;;;;;;;12.88;5.13;;;1.40;99.90;;;;;;5027410;28;20522;-64
2022/01/10 02:26:40;;;;;;;18.52;6.32;;;1.40;99.90;;;;;;5043025;22;20131;-61
2022/01/10 02:29:07;;;;;;;16.70;5.38;;;1.30;99.90;;;;;;4996856;28;20046;-61
2022/01/10 02:31:39;;;;;;;13.55;5.07;;;1.30;99.90;;;;;;5015964;28;20053;-60
2022/01/10 02:34:05;;;;;;;12.57;4.90;;;1.30;99.90;;;;;;4996375;28;20245;-61
2022/01/10 02:36:31;;;;;;;13.30;5.53;;;1.30;99.90;;;;;;5001461;28;20050;-61
2022/01/10 02:39:03;;;;;;;13.02;5.40;;;1.30;99.90;;;;;;5017470;28;20092;-61
2022/01/10 02:41:35;;;;;;;11.73;4.65;;;1.20;99.90;;;;;;5001715;28;20044;-61
2022/01/10 02:44:04;;;;;;;13.95;5.63;;;1.20;99.90;;;;;;4978510;28;20332;-61
2022/01/10 02:46:35;;;;;;;20.83;5.80;;;1.20;99.90;;;;;;5020434;28;20045;-60
2022/01/10 02:49:07;;;;;;;21.90;6.75;;;1.20;99.90;;;;;;4999552;28;20117;-59
2022/01/10 02:51:32;;;;;;;9.55;4.25;;;1.20;99.90;;;;;;5016424;28;20042;-61
2022/01/10 02:53:58;;;;;;;11.27;4.72;;;1.20;99.90;;;;;;5014151;28;20037;-60
2022/01/10 02:56:24;;;;;;;21.05;6.03;;;1.20;99.90;;;;;;4997026;28;20033;-61
2022/01/10 02:58:49;;;;;;;16.40;5.63;;;1.20;99.90;;;;;;5000942;28;20044;-60
2022/01/10 03:01:15;;;;;;;17.00;5.65;;;1.20;99.90;;;;;;5016823;28;20606;-60
2022/01/10 03:03:41;;;;;;;17.95;6.15;;;1.20;99.90;;;;;;5012396;28;20041;-60
2022/01/10 03:06:07;;;;;;;18.05;6.50;;;1.20;99.90;;;;;;5017392;28;20091;-60
2022/01/10 03:08:33;;;;;;;13.52;5.63;;;1.20;99.90;;;;;;4980770;28;20068;-61
2022/01/10 03:11:00;;;;;;;17.40;6.93;;;1.20;99.90;;;;;;4995582;28;20076;-60
2022/01/10 03:13:26;;;;;;;19.13;7.13;;;1.20;99.90;;;;;;4998255;28;20053;-60
2022/01/10 03:15:52;;;;;;;15.55;6.45;;;1.10;99.90;;;;;;5011725;28;20044;-60
2022/01/10 03:18:17;;;;;;;11.10;6.40;;;1.20;99.90;;;;;;4992319;28;20480;-60
2022/01/10 03:20:43;;;;;;;16.23;6.40;;;1.10;99.90;;;;;;4999817;28;20045;-60
2022/01/10 03:23:09;;;;;;;15.63;6.53;;;1.10;99.90;;;;;;4997327;28;20046;-60
2022/01/10 03:25:35;;;;;;;15.40;6.18;;;1.10;99.90;;;;;;4997872;28;20052;-61
2022/01/10 03:28:01;;;;;;;24.25;7.35;;;1.10;99.90;;;;;;5017650;28;20511;-61
2022/01/10 03:30:28;;;;;;;18.92;7.68;;;1.10;99.90;;;;;;5003389;28;20048;-60
2022/01/10 03:32:56;;;;;;;17.60;6.72;;;1.10;99.90;;;;;;4980513;28;20459;-60
2022/01/10 03:35:22;;;;;;;22.02;7.97;;;1.10;99.90;;;;;;5024480;28;20116;-61
2022/01/10 03:37:48;;;;;;;17.80;7.45;;;1.10;99.90;;;;;;4997635;28;20459;-60
2022/01/10 03:40:13;;;;;;;15.55;7.63;;;1.10;99.90;;;;;;5019184;28;20095;-61
2022/01/10 03:42:39;;;;;;;15.57;6.00;;;1.10;99.90;;;;;;4997483;28;20051;-61
2022/01/10 03:45:07;;;;;;;21.75;7.97;;;1.10;99.90;;;;;;4997116;28;20121;-61
2022/01/10 03:47:33;;;;;;;27.52;11.40;;;1.10;99.90;;;;;;5016638;28;20041;-61
2022/01/10 03:49:59;;;;;;;22.20;8.82;;;1.10;99.90;;;;;;5013308;28;20080;-61
2022/01/10 03:52:26;;;;;;;22.45;8.00;;;1.10;99.90;;;;;;5017933;28;20073;-62
2022/01/10 03:54:52;;;;;;;18.63;8.02;;;1.10;99.90;;;;;;5016194;28;20062;-60
2022/01/10 03:57:18;;;;;;;21.75;7.85;;;1.00;99.90;;;;;;4987148;28;20049;-61
2022/01/10 03:59:44;;;;;;;22.23;9.57;;;1.00;99.90;;;;;;4979511;28;20073;-61
2022/01/10 04:02:10;;;;;;;20.30;7.40;;;1.00;99.90;;;;;;5012571;28;20121;-61
2022/01/10 04:04:38;;;;;;;21.52;9.50;;;1.00;99.90;;;;;;4999260;28;20033;-61
2022/01/10 04:07:04;;;;;;;16.73;7.75;;;1.00;99.90;;;;;;4982291;28;20029;-61
2022/01/10 04:09:30;;;;;;;17.35;7.10;;;1.00;99.90;;;;;;4989566;28;20053;-61
2022/01/10 04:11:56;;;;;;;20.73;8.77;;;0.90;99.90;;;;;;5001663;28;20037;-60
2022/01/10 04:14:22;;;;;;;25.25;10.27;;;1.00;99.90;;;;;;4999420;28;20065;-61
2022/01/10 04:16:48;;;;;;;23.08;9.60;;;1.10;99.90;;;;;;4991327;28;20041;-61
2022/01/10 04:19:13;;;;;;;40.75;12.25;;;1.10;99.90;;;;;;5014645;28;20509;-60
2022/01/10 04:21:39;;;;;;;62.13;13.93;;;1.10;99.90;;;;;;4998226;28;20754;-60
2022/01/10 04:24:05;;;;;;;33.05;11.65;;;1.10;99.90;;;;;;4993710;28;20571;-60
2022/01/10 04:26:31;;;;;;;24.23;8.70;;;1.10;99.90;;;;;;5003700;28;20048;-61
2022/01/10 04:28:57;;;;;;;30.10;12.77;;;1.10;99.90;;;;;;4996730;28;20049;-61
2022/01/10 04:31:22;;;;;;;28.77;11.13;;;1.10;99.90;;;;;;5006011;28;20158;-60
2022/01/10 04:33:48;;;;;;;87.15;16.52;;;1.10;99.90;;;;;;5012935;28;20045;-63
2022/01/10 04:36:14;;;;;;;42.92;12.82;;;1.10;99.90;;;;;;4997053;28;20099;-61
2022/01/10 04:38:42;;;;;;;38.08;11.75;;;1.10;99.90;;;;;;5019950;28;20037;-62
2022/01/10 04:41:09;;;;;;;51.15;14.93;;;1.10;99.90;;;;;;4995069;28;20565;-61
2022/01/10 04:43:36;;;;;;;63.67;13.25;;;1.10;99.90;;;;;;5004845;28;20499;-61
2022/01/10 04:46:02;;;;;;;46.65;11.65;;;1.10;99.90;;;;;;5001059;28;20034;-61
2022/01/10 04:48:28;;;;;;;78.22;15.23;;;1.10;99.90;;;;;;4982056;28;20555;-61
2022/01/10 04:53:34;;;;;;;68.60;14.30;;;1.10;99.90;;;;;;4993061;28;20125;-61
2022/01/10 04:56:00;;;;;;;26.90;9.77;;;1.10;99.90;;;;;;4999805;28;20144;-60
2022/01/10 04:58:26;;;;;;;95.93;16.05;;;1.10;99.90;;;;;;4985121;28;20415;-60
2022/01/10 05:00:53;;;;;;;64.05;13.73;;;1.10;99.90;;;;;;4995635;28;20112;-61
2022/01/10 05:03:19;;;;;;;18.27;10.27;;;1.10;99.90;;;;;;5016886;28;20523;-60
2022/01/10 05:05:46;;;;;;;51.47;15.57;;;1.10;99.90;;;;;;5013885;28;20053;-61
2022/01/10 05:08:12;;;;;;;40.63;15.10;;;1.10;99.90;;;;;;4998111;28;21774;-61
2022/01/10 05:10:37;;;;;;;37.75;14.07;;;1.20;99.90;;;;;;4993082;28;20044;-60
2022/01/10 05:13:03;;;;;;;33.83;11.95;;;1.10;99.90;;;;;;4983467;28;20037;-59
2022/01/10 05:15:29;;;;;;;51.83;14.10;;;1.10;99.90;;;;;;5001584;28;20033;-59
2022/01/10 05:17:55;;;;;;;29.65;12.73;;;1.10;99.90;;;;;;4982556;28;20041;-61
2022/01/10 05:20:20;;;;;;;44.90;14.43;;;1.10;99.90;;;;;;4997721;28;20038;-60
2022/01/10 05:22:46;;;;;;;44.70;13.48;;;1.10;99.90;;;;;;4994974;28;20046;-59
2022/01/10 05:25:12;;;;;;;39.17;15.00;;;1.10;99.90;;;;;;4980567;28;20563;-60
2022/01/10 05:27:38;;;;;;;59.38;15.60;;;1.10;99.90;;;;;;4983429;28;20372;-60
2022/01/10 05:30:04;;;;;;;38.92;15.60;;;1.10;99.90;;;;;;4996567;28;20159;-61
2022/01/10 05:32:30;;;;;;;30.20;12.80;;;1.10;99.90;;;;;;4992119;28;20045;-59
2022/01/10 05:34:56;;;;;;;23.88;10.23;;;1.10;99.90;;;;;;4998822;28;20041;-60
2022/01/10 05:37:22;;;;;;;36.15;13.48;;;1.00;99.90;;;;;;5003562;28;20041;-61
2022/01/10 05:39:47;;;;;;;23.10;11.98;;;1.00;99.90;;;;;;5000023;28;20153;-60
2022/01/10 05:42:14;;;;;;;31.40;14.52;;;1.00;99.90;;;;;;5004346;28;20056;-60
2022/01/10 05:44:40;;;;;;;37.83;14.85;;;1.00;99.90;;;;;;5007773;28;20439;-60
2022/01/10 05:47:06;;;;;;;45.47;17.42;;;0.90;99.90;;;;;;4997230;28;20041;-61
2022/01/10 05:49:34;;;;;;;35.13;13.52;;;0.90;99.90;;;;;;5004671;28;20160;-60
2022/01/10 05:52:01;;;;;;;40.33;16.58;;;0.90;99.90;;;;;;5019568;28;20037;-59
2022/01/10 05:54:27;;;;;;;35.95;15.05;;;0.90;99.90;;;;;;4989287;28;20186;-60
2022/01/10 05:56:53;;;;;;;51.55;16.88;;;0.90;99.90;;;;;;5018189;28;20065;-60
2022/01/10 05:59:19;;;;;;;60.97;19.40;;;0.90;99.90;;;;;;5013953;28;20041;-61
2022/01/10 06:01:45;;;;;;;39.80;16.02;;;0.90;99.90;;;;;;4991210;28;20102;-60
2022/01/10 06:04:11;;;;;;;63.10;18.45;;;0.90;99.90;;;;;;5020706;28;20041;-60
2022/01/10 06:06:36;;;;;;;40.35;17.30;;;0.90;99.90;;;;;;5001493;28;20084;-60
2022/01/10 06:09:03;;;;;;;31.73;16.67;;;0.90;99.90;;;;;;5003953;28;20603;-60
2022/01/10 06:11:29;;;;;;;53.97;19.80;;;0.80;99.90;;;;;;5002332;28;20057;-61
2022/01/10 06:13:55;;;;;;;53.05;18.33;;;0.90;99.90;;;;;;5001334;28;20037;-60
2022/01/10 06:16:20;;;;;;;51.13;19.55;;;0.80;99.90;;;;;;4995847;28;20037;-61
2022/01/10 06:18:46;;;;;;;41.95;19.05;;;0.80;99.90;;;;;;5024041;28;20073;-59
2022/01/10 06:21:12;;;;;;;48.10;20.05;;;0.80;99.90;;;;;;4987765;28;20050;-60
2022/01/10 06:23:38;;;;;;;24.42;14.90;;;0.80;99.90;;;;;;5021502;28;20037;-59
2022/01/10 06:26:03;;;;;;;31.15;15.95;;;0.80;99.90;;;;;;4987498;28;20033;-60
2022/01/10 06:28:29;;;;;;;40.95;20.98;;;0.90;99.90;;;;;;5000503;28;20495;-60
2022/01/10 06:30:55;;;;;;;31.88;17.77;;;0.90;99.90;;;;;;4997121;28;20049;-61
2022/01/10 06:33:21;;;;;;;34.80;17.65;;;0.90;99.90;;;;;;4983413;28;20060;-61
2022/01/10 06:35:46;;;;;;;29.38;18.02;;;0.90;99.90;;;;;;5000976;28;20043;-61
2022/01/10 06:38:12;;;;;;;35.40;18.10;;;0.90;99.90;;;;;;5016463;28;20629;-61
2022/01/10 06:40:38;;;;;;;34.72;18.08;;;1.00;99.90;;;;;;4997334;28;20041;-60
2022/01/10 06:43:04;;;;;;;32.85;18.25;;;1.00;99.90;;;;;;4998221;28;20041;-60
2022/01/10 06:45:30;;;;;;;27.45;14.35;;;0.90;99.90;;;;;;4998182;28;20048;-60
2022/01/10 06:47:56;;;;;;;23.52;13.45;;;0.90;99.90;;;;;;4999699;28;20053;-60
2022/01/10 06:50:22;;;;;;;33.75;18.58;;;0.90;99.90;;;;;;4983147;28;20037;-60
2022/01/10 06:52:50;;;;;;;34.03;18.15;;;0.90;99.90;;;;;;4994749;28;20099;-60
2022/01/10 06:55:19;;;;;;;29.85;17.33;;;0.90;99.90;;;;;;5002510;28;20047;-60
2022/01/10 06:57:45;;;;;;;32.75;17.05;;;0.90;99.90;;;;;;5001841;28;20041;-60
2022/01/10 07:00:11;;;;;;;28.83;16.52;;;0.90;99.90;;;;;;5002919;28;20849;-60
2022/01/10 07:02:37;;;;;;;25.40;14.63;;;0.80;99.90;;;;;;5013005;28;20491;-60
2022/01/10 07:05:03;;;;;;;30.27;17.05;;;0.80;99.90;;;;;;5015698;28;20313;-61
2022/01/10 07:07:28;;;;;;;32.80;16.10;;;0.80;99.90;;;;;;4998329;28;20569;-60
2022/01/10 07:09:54;;;;;;;31.15;16.92;;;0.80;99.90;;;;;;5020617;28;20042;-62
2022/01/10 07:12:20;;;;;;;28.17;15.70;;;0.70;99.90;;;;;;5002747;28;20046;-61
2022/01/10 07:14:46;;;;;;;34.33;16.52;;;0.70;99.90;;;;;;5010422;28;21300;-61
2022/01/10 07:17:11;;;;;;;35.05;18.63;;;0.80;99.90;;;;;;4999960;28;20535;-61
2022/01/10 07:19:37;;;;;;;41.10;20.17;;;0.70;99.90;;;;;;4981621;28;20560;-60
2022/01/10 07:22:03;;;;;;;32.42;18.45;;;0.70;99.90;;;;;;4978800;28;20538;-61
2022/01/10 07:24:29;;;;;;;33.47;17.77;;;0.70;99.90;;;;;;4991123;28;20786;-61
2022/01/10 07:26:55;;;;;;;32.60;18.33;;;0.70;99.90;;;;;;4993751;28;20041;-60
2022/01/10 07:29:21;;;;;;;30.48;15.20;;;0.70;99.90;;;;;;4993512;28;20053;-61
2022/01/10 07:31:46;;;;;;;28.25;15.60;;;0.70;99.90;;;;;;5010071;28;20526;-60
2022/01/10 07:34:15;;;;;;;37.13;18.88;;;0.70;99.90;;;;;;4999035;28;20069;-60
2022/01/10 07:36:41;;;;;;;37.22;19.58;;;0.70;99.90;;;;;;5013343;28;20140;-61
2022/01/10 07:39:08;;;;;;;37.13;20.92;;;0.70;99.90;;;;;;5016089;28;20124;-60
2022/01/10 07:41:34;;;;;;;38.65;21.90;;;0.70;99.90;;;;;;4998112;28;20045;-60
2022/01/10 07:44:00;;;;;;;32.90;18.33;;;0.60;99.90;;;;;;4998319;28;20052;-61
2022/01/10 07:46:27;;;;;;;32.10;18.20;;;0.60;99.90;;;;;;5002695;28;20434;-61
2022/01/10 07:48:54;;;;;;;39.28;20.73;;;0.60;99.90;;;;;;4997231;28;20046;-60
2022/01/10 07:51:21;;;;;;;37.45;19.70;;;0.60;99.90;;;;;;4980177;28;20071;-60
2022/01/10 07:53:47;;;;;;;40.13;20.20;;;0.60;99.90;;;;;;4997581;28;21823;-60
2022/01/10 07:56:13;;;;;;;35.13;20.63;;;0.60;99.90;;;;;;4994399;28;20037;-61
2022/01/10 07:58:39;;;;;;;36.33;20.42;;;0.60;99.90;;;;;;4999684;28;20145;-61
2022/01/10 08:01:05;;;;;;;38.58;19.80;;;0.60;99.90;;;;;;5012258;28;20048;-60
2022/01/10 08:03:31;;;;;;;36.70;22.48;;;0.60;99.90;;;;;;5015534;28;20049;-61
2022/01/10 08:05:56;;;;;;;43.78;23.40;;;0.60;99.90;;;;;;4997041;28;20048;-60
2022/01/10 08:08:22;;;;;;;29.23;17.95;;;0.60;99.90;;;;;;4994576;28;20444;-61
2022/01/10 08:10:48;;;;;;;41.28;22.90;;;0.70;99.90;;;;;;4996065;28;20040;-60
2022/01/10 08:13:14;;;;;;;39.85;21.73;;;0.70;99.90;;;;;;4992437;28;20443;-61
2022/01/10 08:15:40;;;;;;;34.65;20.90;;;0.80;99.90;;;;;;5008668;28;20038;-59
2022/01/10 08:18:07;;;;;;;35.20;20.83;;;0.80;99.90;;;;;;4997011;28;20072;-61
2022/01/10 08:20:33;;;;;;;38.28;21.40;;;0.80;99.90;;;;;;5010398;28;20053;-60
2022/01/10 08:22:59;;;;;;;41.35;22.02;;;0.80;99.90;;;;;;4996312;28;20076;-61
2022/01/10 08:25:25;;;;;;;34.03;19.55;;;0.70;99.90;;;;;;5014589;28;20124;-61
2022/01/10 08:27:50;;;;;;;37.10;22.42;;;0.70;99.90;;;;;;4991453;28;20568;-60
2022/01/10 08:30:17;;;;;;;35.63;20.08;;;0.70;99.90;;;;;;4988160;28;20136;-60
2022/01/10 08:35:22;;;;;;;33.03;20.60;;;0.70;99.90;;;;;;5015040;28;20061;-83
2022/01/10 08:37:48;;;;;;;34.50;19.50;;;0.80;99.90;;;;;;4982562;28;20025;-82
2022/01/10 08:40:14;;;;;;;39.33;22.92;;;1.10;99.90;;;;;;5010868;28;20049;-84
2022/01/10 08:42:40;;;;;;;38.75;21.85;;;0.80;99.90;;;;;;5003197;28;20037;-83
2022/01/10 08:45:08;;;;;;;34.25;21.02;;;0.80;99.90;;;;;;5000339;28;23224;-83
2022/01/10 08:47:34;;;;;;;40.83;23.05;;;0.80;99.90;;;;;;5005067;28;20069;-83
2022/01/10 08:50:00;;;;;;;30.67;18.83;;;0.80;99.90;;;;;;5002108;28;20049;-84
2022/01/10 08:52:26;;;;;;;33.88;20.20;;;0.80;99.90;;;;;;5019622;28;20041;-83
2022/01/10 08:54:51;;;;;;;36.88;22.38;;;0.80;99.90;;;;;;4969487;28;20042;-82
2022/01/10 08:57:18;;;;;;;33.80;21.10;;;0.90;99.90;;;;;;5016238;28;20212;-83
2022/01/10 08:59:44;;;;;;;30.58;22.00;;;1.00;99.90;;;;;;4985122;28;20631;-82
2022/01/10 09:02:11;;;;;;;30.20;19.38;;;1.00;99.90;;;;;;5001497;28;20677;-83
2022/01/10 09:04:37;;;;;;;29.10;20.00;;;1.00;99.90;;;;;;4986978;28;20041;-81
2022/01/10 09:07:03;;;;;;;30.83;20.30;;;1.00;99.90;;;;;;4985706;28;20045;-83
2022/01/10 09:09:29;;;;;;;41.05;23.70;;;1.10;99.90;;;;;;4979199;28;20129;-83
2022/01/10 09:11:55;;;;;;;38.75;23.77;;;1.10;99.90;;;;;;4992154;28;20956;-83
2022/01/10 09:14:21;;;;;;;45.13;26.10;;;1.20;99.90;;;;;;4984548;28;20417;-83
2022/01/10 09:16:47;;;;;;;41.97;25.23;;;1.60;99.90;;;;;;5024914;28;20048;-83
2022/01/10 09:19:14;;;;;;;55.45;27.55;;;1.40;99.90;;;;;;5008035;28;20045;-84
2022/01/10 09:21:41;;;;;;;34.83;23.83;;;1.60;99.90;;;;;;5022756;28;20107;-82
2022/01/10 09:24:07;;;;;;;45.83;27.52;;;1.50;99.90;;;;;;5019734;28;20030;-82
2022/01/10 09:26:33;;;;;;;50.97;29.45;;;1.50;99.90;;;;;;5009778;28;20041;-83
2022/01/10 09:28:59;;;;;;;38.47;24.10;;;1.70;99.90;;;;;;5022840;28;20037;-84
2022/01/10 09:31:26;;;;;;;44.40;23.27;;;1.80;99.90;;;;;;4992597;28;20528;-81
2022/01/10 09:33:55;;;;;;;41.92;25.48;;;2.40;99.90;;;;;;4987435;28;20037;-84
2022/01/10 09:36:24;;;;;;;49.97;29.80;;;2.00;99.90;;;;;;5022306;28;20040;-83
2022/01/10 09:38:50;;;;;;;48.30;28.08;;;1.90;99.90;;;;;;5028061;28;20041;-83
2022/01/10 09:41:16;;;;;;;49.05;29.77;;;2.20;99.90;;;;;;5005557;28;20249;-83
2022/01/10 09:44:02;;;;;;;39.42;21.38;;;2.30;99.90;;;;;;5013549;28;20128;-83
2022/01/10 09:46:30;;;;;;;47.92;28.70;;;2.10;99.90;;;;;;4990352;28;20113;-83
2022/01/10 09:48:59;;;;;;;52.03;27.70;;;2.10;99.90;;;;;;4995782;28;20052;-84
2022/01/10 09:51:27;;;;;;;47.70;28.80;;;2.70;99.90;;;;;;4989190;28;20103;-82
2022/01/10 09:53:57;;;;;;;36.65;23.30;;;2.40;99.90;;;;;;5003073;28;20547;-82
2022/01/10 09:56:24;;;;;;;44.80;26.90;;;2.40;99.90;;;;;;5002316;28;20069;-82
2022/01/10 09:58:52;;;;;;;44.15;27.88;;;2.50;99.90;;;;;;4991878;28;20038;-82
2022/01/10 10:01:18;;;;;;;43.65;27.02;;;2.50;99.90;;;;;;4991857;28;20459;-82
2022/01/10 10:03:48;;;;;;;46.75;28.13;;;3.00;99.90;;;;;;4986590;28;20045;-83
2022/01/10 10:06:18;;;;;;;43.58;27.23;;;2.70;99.90;;;;;;4987197;28;20525;-84
2022/01/10 10:08:44;;;;;;;40.83;26.17;;;2.80;99.90;;;;;;5004011;28;20053;-84
2022/01/10 10:11:12;;;;;;;44.33;27.02;;;2.90;99.90;;;;;;5005632;28;20410;-85
2022/01/10 10:13:53;;;;;;;32.83;22.75;;;3.00;99.90;;;;;;5009229;28;20038;-84
2022/01/10 10:16:20;;;;;;;38.70;25.65;;;3.00;99.90;;;;;;5005192;28;20045;-84
2022/01/10 10:18:47;;;;;;;38.45;25.20;;;3.10;99.90;;;;;;5011024;28;20048;-82
2022/01/10 10:21:18;;;;;;;41.75;25.77;;;3.10;99.90;;;;;;5000336;28;20042;-83
2022/01/10 10:23:49;;;;;;;46.63;27.35;;;3.40;99.90;;;;;;4999577;28;20054;-83
2022/01/10 10:26:24;;;;;;;44.72;27.27;;;3.30;99.90;;;;;;4991352;28;20103;-82
2022/01/10 10:28:55;;;;;;;39.13;26.10;;;3.40;99.90;;;;;;4988456;28;20041;-82
2022/01/10 10:31:33;;;;;;;37.97;24.15;;;3.40;99.90;;;;;;5004145;28;20053;-83
2022/01/10 10:34:32;;;;;;;44.10;27.33;;;3.60;99.90;;;;;;5019762;28;20097;-82
2022/01/10 10:37:00;;;;;;;42.63;27.23;;;3.60;99.90;;;;;;5008531;28;20171;-85
2022/01/10 10:39:27;;;;;;;36.85;25.38;;;3.80;99.90;;;;;;5006741;28;20098;-85
2022/01/10 10:42:14;;;;;;;42.45;26.40;;;3.80;99.90;;;;;;5022932;28;20037;-84
2022/01/10 10:44:42;;;;;;;42.65;26.35;;;4.10;99.90;;;;;;5022336;28;20064;-83
2022/01/10 10:47:10;;;;;;;41.22;26.13;;;4.00;99.90;;;;;;4991291;28;20037;-82
2022/01/10 10:49:39;;;;;;;45.63;29.05;;;4.20;99.90;;;;;;5000031;28;20080;-81
2022/01/10 10:52:08;;;;;;;46.72;26.88;;;4.40;99.90;;;;;;5005594;28;22334;-82
2022/01/10 10:54:35;;;;;;;39.33;26.27;;;4.30;99.90;;;;;;4991093;28;20041;-82
2022/01/10 10:57:04;;;;;;;41.80;25.77;;;4.40;99.90;;;;;;4989902;28;20044;-83
2022/01/10 10:59:35;;;;;;;41.58;24.30;;;4.50;99.90;;;;;;4989948;28;20059;-82
2022/01/10 11:02:02;;;;;;;44.08;26.27;;;4.60;99.90;;;;;;4991072;28;20573;-83
2022/01/10 11:04:32;;;;;;;42.22;25.27;;;4.80;99.90;;;;;;5010265;28;20132;-83
2022/01/10 11:06:59;;;;;;;33.50;24.50;;;4.80;99.90;;;;;;5007020;28;20504;-83
2022/01/10 11:09:25;;;;;;;37.92;22.42;;;4.90;99.90;;;;;;4987767;28;20038;-84
2022/01/10 11:11:51;;;;;;;38.60;22.65;;;5.00;99.90;;;;;;4989665;28;20111;-84
2022/01/10 11:14:22;;;;;;;39.05;23.17;;;5.00;99.90;;;;;;5000249;28;20109;-83
2022/01/10 11:16:49;;;;;;;40.65;25.02;;;5.20;99.90;;;;;;5004580;28;20061;-83
2022/01/10 11:19:26;;;;;;;39.15;24.20;;;5.20;99.90;;;;;;4989330;28;20045;-83
2022/01/10 11:22:11;;;;;;;45.85;26.50;;;5.40;99.90;;;;;;5005319;28;20049;-83
2022/01/10 11:24:48;;;;;;;35.85;23.45;;;5.50;99.90;;;;;;4989293;28;20061;-83
2022/01/10 11:27:35;;;;;;;39.42;23.17;;;5.50;99.90;;;;;;5008671;28;20037;-83
2022/01/10 11:30:30;;;;;;;37.30;22.73;;;5.60;99.90;;;;;;5004460;28;20229;-83
2022/01/10 11:35:40;;;;;;;40.90;21.80;;;5.70;99.90;;;;;;5003468;28;20580;-59
2022/01/10 11:38:36;;;;;;;32.92;22.00;;;5.80;99.90;;;;;;5006752;27;20050;-59
2022/01/10 11:41:06;;;;;;;40.25;24.15;;;5.80;99.90;;;;;;4986563;28;20299;-59
2022/01/10 11:43:47;;;;;;;35.35;22.20;;;6.00;99.90;;;;;;4979170;28;20042;-57
2022/01/10 11:46:25;;;;;;;35.45;22.70;;;6.10;99.90;;;;;;4975404;28;20324;-57
2022/01/10 11:49:08;;;;;;;39.22;23.13;;;6.10;99.90;;;;;;4982940;28;20108;-59
2022/01/10 11:51:38;;;;;;;33.55;19.52;;;6.30;99.90;;;;;;4963983;28;20049;-58
2022/01/10 11:54:15;;;;;;;38.97;23.05;;;6.30;99.90;;;;;;4977114;28;20049;-60
2022/01/10 11:56:47;;;;;;;39.35;22.85;;;6.40;99.90;;;;;;4983069;28;20045;-59
2022/01/10 11:59:22;;;;;;;31.95;21.33;;;6.50;99.90;;;;;;4994232;28;20497;-58
2022/01/10 12:02:20;;;;;;;31.75;21.05;;;6.60;99.90;;;;;;4975369;28;20065;-59
2022/01/10 12:04:47;;;;;;;30.38;18.33;;;6.60;99.90;;;;;;4972710;28;20075;-58
2022/01/10 12:07:15;;;;;;;29.73;20.20;;;6.70;99.90;;;;;;4987634;28;20104;-59
2022/01/10 12:09:42;;;;;;;32.92;21.55;;;6.70;99.90;;;;;;4985552;28;20087;-57
2022/01/10 12:12:09;;;;;;;32.50;19.17;;;6.80;99.90;;;;;;4983535;28;20501;-58
2022/01/10 12:14:35;;;;;;;27.45;18.00;;;6.80;99.90;;;;;;5002966;28;20042;-58
2022/01/10 12:17:02;;;;;;;33.65;19.08;;;6.90;99.90;;;;;;4986019;28;21439;-58
2022/01/10 12:19:28;;;;;;;31.92;20.92;;;7.00;99.90;;;;;;4992279;28;20397;-60
2022/01/10 12:21:55;;;;;;;35.42;19.55;;;7.10;99.90;;;;;;4982677;28;20124;-59
2022/01/10 12:24:21;;;;;;;31.45;20.98;;;7.10;99.90;;;;;;5000942;28;20048;-58
2022/01/10 12:26:47;;;;;;;36.95;20.92;;;7.10;99.90;;;;;;5015521;28;20556;-58
2022/01/10 12:29:15;;;;;;;38.42;21.42;;;7.20;99.90;;;;;;4999126;28;20398;-59
2022/01/10 12:31:43;;;;;;;36.40;20.75;;;7.20;99.90;;;;;;4991687;28;20034;-58
2022/01/10 12:34:11;;;;;;;32.25;20.02;;;7.30;99.90;;;;;;5009669;28;20055;-60
2022/01/10 12:36:39;;;;;;;32.05;20.42;;;7.30;99.90;;;;;;4974868;28;20609;-58
2022/01/10 12:39:16;;;;;;;34.88;20.50;;;7.40;99.90;;;;;;5014514;28;20081;-59
2022/01/10 12:41:42;;;;;;;33.28;20.80;;;7.40;99.90;;;;;;4975618;28;20038;-57
2022/01/10 12:44:07;;;;;;;32.35;19.10;;;7.40;99.90;;;;;;4982168;28;20135;-59
2022/01/10 12:46:33;;;;;;;33.88;20.38;;;7.40;99.90;;;;;;4980676;28;20037;-57
2022/01/10 12:49:02;;;;;;;34.47;21.17;;;7.40;99.90;;;;;;4978368;28;20091;-59
2022/01/10 12:51:36;;;;;;;28.63;19.48;;;7.40;99.90;;;;;;4965610;28;20510;-60
2022/01/10 12:54:10;;;;;;;;;;;7.40;99.90;;;;;;4958576;28;20057;-57
2022/01/10 12:56:37;;;;;;;34.08;20.08;;;7.40;99.90;;;;;;4961261;28;19917;-58
2022/01/10 12:59:03;;;;;;;30.83;19.05;;;7.40;99.90;;;;;;4982804;28;20086;-60